sensor_id;sensor_type;location;lat;lon;timestamp;P1;durP1;ratioP1;P2;durP2;ratioP2
18649;SDS011;9454;53.516;10.478;2023-06-10T00:02:35;2.85;;;1.50;;
18649;SDS011;9454;53.516;10.478;2023-06-10T00:05:39;5.47;;;2.03;;
18649;SDS011;9454;53.516;10.478;2023-06-10T00:08:43;6.38;;;1.80;;
18649;SDS011;9454;53.516;10.478;2023-06-10T00:11:50;6.20;;;1.67;;
18649;SDS011;9454;53.516;10.478;2023-06-10T00:14:57;5.25;;;1.88;;
18649;SDS011;9454;53.516;10.478;2023-06-10T00:18:01;4.38;;;2.17;;
18649;SDS011;9454;53.516;10.478;2023-06-10T00:21:06;5.70;;;1.73;;
18649;SDS011;9454;53.516;10.478;2023-06-10T00:24:10;7.00;;;2.10;;
18649;SDS011;9454;53.516;10.478;2023-06-10T00:27:17;3.30;;;1.45;;
18649;SDS011;9454;53.516;10.478;2023-06-10T00:30:20;4.32;;;1.88;;
18649;SDS011;9454;53.516;10.478;2023-06-10T00:33:24;5.85;;;1.67;;
18649;SDS011;9454;53.516;10.478;2023-06-10T00:36:29;5.63;;;1.77;;
18649;SDS011;9454;53.516;10.478;2023-06-10T00:39:33;2.58;;;1.45;;
18649;SDS011;9454;53.516;10.478;2023-06-10T00:42:40;3.72;;;1.45;;
18649;SDS011;9454;53.516;10.478;2023-06-10T00:45:44;5.65;;;2.03;;
18649;SDS011;9454;53.516;10.478;2023-06-10T00:48:47;5.85;;;1.92;;
18649;SDS011;9454;53.516;10.478;2023-06-10T00:51:51;5.45;;;1.90;;
18649;SDS011;9454;53.516;10.478;2023-06-10T00:54:56;4.38;;;1.60;;
18649;SDS011;9454;53.516;10.478;2023-06-10T00:58:04;7.50;;;1.98;;
18649;SDS011;9454;53.516;10.478;2023-06-10T01:01:08;4.07;;;1.52;;
18649;SDS011;9454;53.516;10.478;2023-06-10T01:04:14;4.93;;;1.52;;
18649;SDS011;9454;53.516;10.478;2023-06-10T01:07:20;4.60;;;1.92;;
18649;SDS011;9454;53.516;10.478;2023-06-10T01:10:28;4.38;;;1.65;;
18649;SDS011;9454;53.516;10.478;2023-06-10T01:13:35;9.00;;;2.08;;
18649;SDS011;9454;53.516;10.478;2023-06-10T01:16:39;7.68;;;1.88;;
18649;SDS011;9454;53.516;10.478;2023-06-10T01:19:44;4.95;;;1.80;;
18649;SDS011;9454;53.516;10.478;2023-06-10T01:22:50;7.18;;;2.20;;
18649;SDS011;9454;53.516;10.478;2023-06-10T01:25:56;4.10;;;1.63;;
18649;SDS011;9454;53.516;10.478;2023-06-10T01:29:03;8.02;;;1.67;;
18649;SDS011;9454;53.516;10.478;2023-06-10T01:32:12;5.30;;;1.60;;
18649;SDS011;9454;53.516;10.478;2023-06-10T01:35:20;6.80;;;1.50;;
18649;SDS011;9454;53.516;10.478;2023-06-10T01:38:29;4.22;;;1.60;;
18649;SDS011;9454;53.516;10.478;2023-06-10T01:41:35;2.80;;;1.35;;
18649;SDS011;9454;53.516;10.478;2023-06-10T01:44:39;3.78;;;1.63;;
18649;SDS011;9454;53.516;10.478;2023-06-10T01:47:43;6.72;;;1.55;;
18649;SDS011;9454;53.516;10.478;2023-06-10T01:50:50;5.45;;;1.50;;
18649;SDS011;9454;53.516;10.478;2023-06-10T01:53:55;4.82;;;1.52;;
18649;SDS011;9454;53.516;10.478;2023-06-10T01:56:59;3.72;;;1.60;;
18649;SDS011;9454;53.516;10.478;2023-06-10T02:00:05;7.78;;;1.35;;
18649;SDS011;9454;53.516;10.478;2023-06-10T02:03:15;4.82;;;1.38;;
18649;SDS011;9454;53.516;10.478;2023-06-10T02:06:22;4.93;;;1.80;;
18649;SDS011;9454;53.516;10.478;2023-06-10T02:09:27;8.93;;;1.77;;
18649;SDS011;9454;53.516;10.478;2023-06-10T02:12:32;3.30;;;1.50;;
18649;SDS011;9454;53.516;10.478;2023-06-10T02:15:36;4.60;;;1.50;;
18649;SDS011;9454;53.516;10.478;2023-06-10T02:18:41;6.93;;;2.00;;
18649;SDS011;9454;53.516;10.478;2023-06-10T02:21:45;4.18;;;1.30;;
18649;SDS011;9454;53.516;10.478;2023-06-10T02:24:53;4.85;;;1.70;;
18649;SDS011;9454;53.516;10.478;2023-06-10T02:27:57;5.03;;;1.40;;
18649;SDS011;9454;53.516;10.478;2023-06-10T02:31:01;6.18;;;1.50;;
18649;SDS011;9454;53.516;10.478;2023-06-10T02:34:04;3.25;;;1.25;;
18649;SDS011;9454;53.516;10.478;2023-06-10T02:37:13;3.88;;;1.73;;
18649;SDS011;9454;53.516;10.478;2023-06-10T02:40:18;10.18;;;1.40;;
18649;SDS011;9454;53.516;10.478;2023-06-10T02:43:23;5.00;;;1.63;;
18649;SDS011;9454;53.516;10.478;2023-06-10T02:46:29;5.90;;;1.40;;
18649;SDS011;9454;53.516;10.478;2023-06-10T02:49:33;4.75;;;1.60;;
18649;SDS011;9454;53.516;10.478;2023-06-10T02:52:37;4.07;;;1.55;;
18649;SDS011;9454;53.516;10.478;2023-06-10T02:55:43;3.53;;;1.63;;
18649;SDS011;9454;53.516;10.478;2023-06-10T02:58:49;2.22;;;1.08;;
18649;SDS011;9454;53.516;10.478;2023-06-10T03:01:54;2.35;;;1.20;;
18649;SDS011;9454;53.516;10.478;2023-06-10T03:04:59;6.95;;;1.58;;
18649;SDS011;9454;53.516;10.478;2023-06-10T03:08:04;4.00;;;1.40;;
18649;SDS011;9454;53.516;10.478;2023-06-10T03:11:13;2.83;;;1.50;;
18649;SDS011;9454;53.516;10.478;2023-06-10T03:14:18;3.97;;;1.30;;
18649;SDS011;9454;53.516;10.478;2023-06-10T03:17:23;2.47;;;1.10;;
18649;SDS011;9454;53.516;10.478;2023-06-10T03:20:27;5.78;;;1.17;;
18649;SDS011;9454;53.516;10.478;2023-06-10T03:23:33;5.50;;;1.27;;
18649;SDS011;9454;53.516;10.478;2023-06-10T03:26:39;2.05;;;1.40;;
18649;SDS011;9454;53.516;10.478;2023-06-10T03:29:45;8.05;;;1.27;;
18649;SDS011;9454;53.516;10.478;2023-06-10T03:32:50;6.57;;;1.08;;
18649;SDS011;9454;53.516;10.478;2023-06-10T03:35:58;3.47;;;0.85;;
18649;SDS011;9454;53.516;10.478;2023-06-10T03:39:02;7.07;;;0.85;;
18649;SDS011;9454;53.516;10.478;2023-06-10T03:42:14;4.05;;;1.08;;
18649;SDS011;9454;53.516;10.478;2023-06-10T03:45:18;5.70;;;1.30;;
18649;SDS011;9454;53.516;10.478;2023-06-10T03:48:23;7.32;;;1.40;;
18649;SDS011;9454;53.516;10.478;2023-06-10T03:51:27;7.65;;;1.17;;
18649;SDS011;9454;53.516;10.478;2023-06-10T03:54:31;4.45;;;1.40;;
18649;SDS011;9454;53.516;10.478;2023-06-10T03:57:38;4.90;;;1.23;;
18649;SDS011;9454;53.516;10.478;2023-06-10T04:00:42;4.15;;;1.00;;
18649;SDS011;9454;53.516;10.478;2023-06-10T04:03:46;4.13;;;1.30;;
18649;SDS011;9454;53.516;10.478;2023-06-10T04:06:52;5.35;;;1.23;;
18649;SDS011;9454;53.516;10.478;2023-06-10T04:09:56;4.60;;;1.10;;
18649;SDS011;9454;53.516;10.478;2023-06-10T04:13:04;4.38;;;1.13;;
18649;SDS011;9454;53.516;10.478;2023-06-10T04:16:14;7.93;;;1.52;;
18649;SDS011;9454;53.516;10.478;2023-06-10T04:19:17;3.72;;;1.23;;
18649;SDS011;9454;53.516;10.478;2023-06-10T04:22:22;5.07;;;1.40;;
18649;SDS011;9454;53.516;10.478;2023-06-10T04:25:26;4.97;;;1.33;;
18649;SDS011;9454;53.516;10.478;2023-06-10T04:28:32;4.55;;;1.10;;
18649;SDS011;9454;53.516;10.478;2023-06-10T04:31:37;3.58;;;1.33;;
18649;SDS011;9454;53.516;10.478;2023-06-10T04:34:43;4.78;;;1.38;;
18649;SDS011;9454;53.516;10.478;2023-06-10T04:37:52;4.50;;;1.10;;
18649;SDS011;9454;53.516;10.478;2023-06-10T04:40:57;5.93;;;1.00;;
18649;SDS011;9454;53.516;10.478;2023-06-10T04:44:05;5.53;;;1.10;;
18649;SDS011;9454;53.516;10.478;2023-06-10T04:47:10;5.30;;;1.13;;
18649;SDS011;9454;53.516;10.478;2023-06-10T04:50:14;4.57;;;1.55;;
18649;SDS011;9454;53.516;10.478;2023-06-10T04:53:20;5.10;;;1.20;;
18649;SDS011;9454;53.516;10.478;2023-06-10T04:56:24;3.30;;;1.10;;
18649;SDS011;9454;53.516;10.478;2023-06-10T04:59:31;9.20;;;1.20;;
18649;SDS011;9454;53.516;10.478;2023-06-10T05:02:38;3.35;;;1.17;;
18649;SDS011;9454;53.516;10.478;2023-06-10T05:05:43;2.05;;;1.13;;
18649;SDS011;9454;53.516;10.478;2023-06-10T05:08:47;7.65;;;1.27;;
18649;SDS011;9454;53.516;10.478;2023-06-10T05:11:52;4.40;;;1.05;;
18649;SDS011;9454;53.516;10.478;2023-06-10T05:14:57;6.53;;;1.30;;
18649;SDS011;9454;53.516;10.478;2023-06-10T05:18:01;2.50;;;1.02;;
18649;SDS011;9454;53.516;10.478;2023-06-10T05:21:05;4.22;;;0.88;;
18649;SDS011;9454;53.516;10.478;2023-06-10T05:24:09;5.18;;;0.98;;
18649;SDS011;9454;53.516;10.478;2023-06-10T05:27:13;3.28;;;1.17;;
18649;SDS011;9454;53.516;10.478;2023-06-10T05:30:21;4.95;;;1.20;;
18649;SDS011;9454;53.516;10.478;2023-06-10T05:33:27;3.53;;;1.25;;
18649;SDS011;9454;53.516;10.478;2023-06-10T05:36:32;2.85;;;1.02;;
18649;SDS011;9454;53.516;10.478;2023-06-10T05:39:36;4.93;;;1.20;;
18649;SDS011;9454;53.516;10.478;2023-06-10T05:42:40;12.50;;;1.20;;
18649;SDS011;9454;53.516;10.478;2023-06-10T05:45:45;6.60;;;1.13;;
18649;SDS011;9454;53.516;10.478;2023-06-10T05:48:49;4.80;;;0.98;;
18649;SDS011;9454;53.516;10.478;2023-06-10T05:51:53;2.42;;;0.88;;
18649;SDS011;9454;53.516;10.478;2023-06-10T05:54:57;9.32;;;1.48;;
18649;SDS011;9454;53.516;10.478;2023-06-10T05:58:01;4.38;;;1.25;;
18649;SDS011;9454;53.516;10.478;2023-06-10T06:01:07;7.15;;;1.38;;
18649;SDS011;9454;53.516;10.478;2023-06-10T06:04:12;7.05;;;1.27;;
18649;SDS011;9454;53.516;10.478;2023-06-10T06:07:16;5.20;;;1.13;;
18649;SDS011;9454;53.516;10.478;2023-06-10T06:10:22;4.57;;;1.10;;
18649;SDS011;9454;53.516;10.478;2023-06-10T06:13:28;8.13;;;1.30;;
18649;SDS011;9454;53.516;10.478;2023-06-10T06:16:33;6.10;;;1.25;;
18649;SDS011;9454;53.516;10.478;2023-06-10T06:19:39;3.95;;;1.13;;
18649;SDS011;9454;53.516;10.478;2023-06-10T06:22:43;1.90;;;1.23;;
18649;SDS011;9454;53.516;10.478;2023-06-10T06:25:49;4.25;;;1.20;;
18649;SDS011;9454;53.516;10.478;2023-06-10T06:28:53;2.90;;;1.13;;
18649;SDS011;9454;53.516;10.478;2023-06-10T06:31:58;6.35;;;1.35;;
18649;SDS011;9454;53.516;10.478;2023-06-10T06:35:02;8.63;;;1.38;;
18649;SDS011;9454;53.516;10.478;2023-06-10T06:38:07;5.47;;;1.50;;
18649;SDS011;9454;53.516;10.478;2023-06-10T06:41:11;4.45;;;1.20;;
18649;SDS011;9454;53.516;10.478;2023-06-10T06:44:16;4.70;;;1.27;;
18649;SDS011;9454;53.516;10.478;2023-06-10T06:47:26;3.90;;;0.95;;
18649;SDS011;9454;53.516;10.478;2023-06-10T06:50:34;5.45;;;1.23;;
18649;SDS011;9454;53.516;10.478;2023-06-10T06:53:43;4.65;;;1.35;;
18649;SDS011;9454;53.516;10.478;2023-06-10T06:56:49;4.88;;;1.48;;
18649;SDS011;9454;53.516;10.478;2023-06-10T06:59:56;4.50;;;1.17;;
18649;SDS011;9454;53.516;10.478;2023-06-10T07:03:01;3.92;;;1.17;;
18649;SDS011;9454;53.516;10.478;2023-06-10T07:06:05;5.93;;;1.52;;
18649;SDS011;9454;53.516;10.478;2023-06-10T07:09:10;3.13;;;1.10;;
18649;SDS011;9454;53.516;10.478;2023-06-10T07:12:14;2.67;;;1.17;;
18649;SDS011;9454;53.516;10.478;2023-06-10T07:15:19;3.25;;;1.00;;
18649;SDS011;9454;53.516;10.478;2023-06-10T07:18:24;6.75;;;1.20;;
18649;SDS011;9454;53.516;10.478;2023-06-10T07:21:29;4.10;;;1.20;;
18649;SDS011;9454;53.516;10.478;2023-06-10T07:24:33;7.28;;;1.58;;
18649;SDS011;9454;53.516;10.478;2023-06-10T07:27:39;3.83;;;1.15;;
18649;SDS011;9454;53.516;10.478;2023-06-10T07:30:43;7.13;;;1.48;;
18649;SDS011;9454;53.516;10.478;2023-06-10T07:33:50;4.60;;;1.35;;
18649;SDS011;9454;53.516;10.478;2023-06-10T07:36:53;5.30;;;1.30;;
18649;SDS011;9454;53.516;10.478;2023-06-10T07:39:58;8.45;;;1.33;;
18649;SDS011;9454;53.516;10.478;2023-06-10T07:43:02;4.35;;;1.27;;
18649;SDS011;9454;53.516;10.478;2023-06-10T07:46:06;3.05;;;1.25;;
18649;SDS011;9454;53.516;10.478;2023-06-10T07:49:11;5.65;;;1.00;;
18649;SDS011;9454;53.516;10.478;2023-06-10T07:52:15;6.85;;;1.65;;
18649;SDS011;9454;53.516;10.478;2023-06-10T07:55:18;4.53;;;1.50;;
18649;SDS011;9454;53.516;10.478;2023-06-10T07:58:23;5.13;;;1.70;;
18649;SDS011;9454;53.516;10.478;2023-06-10T08:01:26;5.13;;;1.40;;
18649;SDS011;9454;53.516;10.478;2023-06-10T08:04:36;5.75;;;1.67;;
18649;SDS011;9454;53.516;10.478;2023-06-10T08:07:39;6.38;;;1.70;;
18649;SDS011;9454;53.516;10.478;2023-06-10T08:10:44;6.95;;;1.92;;
18649;SDS011;9454;53.516;10.478;2023-06-10T08:13:48;4.55;;;1.60;;
18649;SDS011;9454;53.516;10.478;2023-06-10T08:16:51;9.38;;;1.85;;
18649;SDS011;9454;53.516;10.478;2023-06-10T08:19:56;3.78;;;1.10;;
18649;SDS011;9454;53.516;10.478;2023-06-10T08:23:00;5.70;;;1.75;;
18649;SDS011;9454;53.516;10.478;2023-06-10T08:26:04;7.03;;;1.48;;
18649;SDS011;9454;53.516;10.478;2023-06-10T08:29:12;4.18;;;1.60;;
18649;SDS011;9454;53.516;10.478;2023-06-10T08:32:15;7.97;;;1.58;;
18649;SDS011;9454;53.516;10.478;2023-06-10T08:35:20;5.03;;;1.65;;
18649;SDS011;9454;53.516;10.478;2023-06-10T08:38:24;3.42;;;1.30;;
18649;SDS011;9454;53.516;10.478;2023-06-10T08:41:33;6.25;;;1.48;;
18649;SDS011;9454;53.516;10.478;2023-06-10T08:44:38;8.55;;;1.98;;
18649;SDS011;9454;53.516;10.478;2023-06-10T08:47:43;7.28;;;1.83;;
18649;SDS011;9454;53.516;10.478;2023-06-10T08:50:49;7.72;;;1.80;;
18649;SDS011;9454;53.516;10.478;2023-06-10T08:53:56;5.28;;;1.50;;
18649;SDS011;9454;53.516;10.478;2023-06-10T08:57:05;7.35;;;1.80;;
18649;SDS011;9454;53.516;10.478;2023-06-10T09:00:13;5.70;;;1.60;;
18649;SDS011;9454;53.516;10.478;2023-06-10T09:03:18;7.60;;;1.90;;
18649;SDS011;9454;53.516;10.478;2023-06-10T09:06:25;6.15;;;1.85;;
18649;SDS011;9454;53.516;10.478;2023-06-10T09:09:29;3.28;;;1.45;;
18649;SDS011;9454;53.516;10.478;2023-06-10T09:12:33;7.97;;;1.63;;
18649;SDS011;9454;53.516;10.478;2023-06-10T09:15:39;3.42;;;2.03;;
18649;SDS011;9454;53.516;10.478;2023-06-10T09:18:43;5.82;;;1.58;;
18649;SDS011;9454;53.516;10.478;2023-06-10T09:21:48;4.55;;;1.55;;
18649;SDS011;9454;53.516;10.478;2023-06-10T09:25:01;3.58;;;1.65;;
18649;SDS011;9454;53.516;10.478;2023-06-10T09:28:12;5.35;;;2.05;;
18649;SDS011;9454;53.516;10.478;2023-06-10T09:31:16;4.47;;;1.45;;
18649;SDS011;9454;53.516;10.478;2023-06-10T09:34:25;6.40;;;2.10;;
18649;SDS011;9454;53.516;10.478;2023-06-10T09:37:30;5.82;;;1.90;;
18649;SDS011;9454;53.516;10.478;2023-06-10T09:40:34;8.50;;;1.80;;
18649;SDS011;9454;53.516;10.478;2023-06-10T09:43:51;5.10;;;1.95;;
18649;SDS011;9454;53.516;10.478;2023-06-10T09:46:59;7.32;;;1.80;;
18649;SDS011;9454;53.516;10.478;2023-06-10T09:50:04;3.05;;;1.88;;
18649;SDS011;9454;53.516;10.478;2023-06-10T09:53:13;8.73;;;2.33;;
18649;SDS011;9454;53.516;10.478;2023-06-10T09:56:16;6.38;;;2.22;;
18649;SDS011;9454;53.516;10.478;2023-06-10T09:59:27;10.13;;;1.92;;
18649;SDS011;9454;53.516;10.478;2023-06-10T10:02:32;4.93;;;1.95;;
18649;SDS011;9454;53.516;10.478;2023-06-10T10:05:38;3.97;;;1.50;;
18649;SDS011;9454;53.516;10.478;2023-06-10T10:08:44;5.18;;;2.08;;
18649;SDS011;9454;53.516;10.478;2023-06-10T10:11:48;7.43;;;1.95;;
18649;SDS011;9454;53.516;10.478;2023-06-10T10:14:53;5.00;;;1.95;;
18649;SDS011;9454;53.516;10.478;2023-06-10T10:18:00;7.10;;;2.45;;
18649;SDS011;9454;53.516;10.478;2023-06-10T10:21:11;5.28;;;2.25;;
18649;SDS011;9454;53.516;10.478;2023-06-10T10:24:18;4.10;;;1.60;;
18649;SDS011;9454;53.516;10.478;2023-06-10T10:27:26;7.65;;;2.08;;
18649;SDS011;9454;53.516;10.478;2023-06-10T10:30:34;4.90;;;2.67;;
18649;SDS011;9454;53.516;10.478;2023-06-10T10:33:42;5.28;;;2.45;;
18649;SDS011;9454;53.516;10.478;2023-06-10T10:36:48;3.03;;;1.98;;
18649;SDS011;9454;53.516;10.478;2023-06-10T10:39:53;6.18;;;2.50;;
18649;SDS011;9454;53.516;10.478;2023-06-10T10:42:58;5.00;;;2.03;;
18649;SDS011;9454;53.516;10.478;2023-06-10T10:46:08;6.60;;;2.35;;
18649;SDS011;9454;53.516;10.478;2023-06-10T10:49:19;5.53;;;2.40;;
18649;SDS011;9454;53.516;10.478;2023-06-10T10:52:24;5.65;;;2.22;;
18649;SDS011;9454;53.516;10.478;2023-06-10T10:55:29;4.25;;;2.25;;
18649;SDS011;9454;53.516;10.478;2023-06-10T10:58:33;7.32;;;2.58;;
18649;SDS011;9454;53.516;10.478;2023-06-10T11:01:40;3.75;;;2.20;;
18649;SDS011;9454;53.516;10.478;2023-06-10T11:04:47;7.57;;;2.28;;
18649;SDS011;9454;53.516;10.478;2023-06-10T11:07:53;8.52;;;2.38;;
18649;SDS011;9454;53.516;10.478;2023-06-10T11:10:59;4.28;;;2.28;;
18649;SDS011;9454;53.516;10.478;2023-06-10T11:14:07;5.82;;;2.20;;
18649;SDS011;9454;53.516;10.478;2023-06-10T11:17:18;7.38;;;2.33;;
18649;SDS011;9454;53.516;10.478;2023-06-10T11:23:41;5.80;;;2.63;;
18649;SDS011;9454;53.516;10.478;2023-06-10T11:26:47;6.78;;;2.75;;
18649;SDS011;9454;53.516;10.478;2023-06-10T11:29:57;7.70;;;2.50;;
18649;SDS011;9454;53.516;10.478;2023-06-10T11:33:01;6.55;;;2.15;;
18649;SDS011;9454;53.516;10.478;2023-06-10T11:36:06;4.30;;;2.38;;
18649;SDS011;9454;53.516;10.478;2023-06-10T11:39:11;7.22;;;2.58;;
18649;SDS011;9454;53.516;10.478;2023-06-10T11:42:17;5.55;;;2.15;;
18649;SDS011;9454;53.516;10.478;2023-06-10T11:45:21;7.45;;;2.45;;
18649;SDS011;9454;53.516;10.478;2023-06-10T11:48:30;7.93;;;2.38;;
18649;SDS011;9454;53.516;10.478;2023-06-10T11:51:36;6.35;;;2.55;;
18649;SDS011;9454;53.516;10.478;2023-06-10T11:54:40;3.53;;;2.10;;
18649;SDS011;9454;53.516;10.478;2023-06-10T11:57:46;3.95;;;2.17;;
18649;SDS011;9454;53.516;10.478;2023-06-10T12:00:55;6.57;;;2.50;;
18649;SDS011;9454;53.516;10.478;2023-06-10T12:04:00;5.00;;;2.88;;
18649;SDS011;9454;53.516;10.478;2023-06-10T12:07:07;11.95;;;2.50;;
18649;SDS011;9454;53.516;10.478;2023-06-10T12:10:16;7.03;;;2.45;;
18649;SDS011;9454;53.516;10.478;2023-06-10T12:13:30;4.95;;;2.38;;
18649;SDS011;9454;53.516;10.478;2023-06-10T12:16:33;8.00;;;2.28;;
18649;SDS011;9454;53.516;10.478;2023-06-10T12:19:39;2.75;;;2.13;;
18649;SDS011;9454;53.516;10.478;2023-06-10T12:22:44;5.15;;;2.33;;
18649;SDS011;9454;53.516;10.478;2023-06-10T12:25:51;4.72;;;2.35;;
18649;SDS011;9454;53.516;10.478;2023-06-10T12:28:57;5.20;;;2.38;;
18649;SDS011;9454;53.516;10.478;2023-06-10T12:32:02;4.55;;;2.70;;
18649;SDS011;9454;53.516;10.478;2023-06-10T12:35:12;2.83;;;1.92;;
18649;SDS011;9454;53.516;10.478;2023-06-10T12:38:20;8.00;;;2.30;;
18649;SDS011;9454;53.516;10.478;2023-06-10T12:41:27;5.97;;;2.90;;
18649;SDS011;9454;53.516;10.478;2023-06-10T12:44:35;5.50;;;2.53;;
18649;SDS011;9454;53.516;10.478;2023-06-10T12:47:39;9.93;;;2.55;;
18649;SDS011;9454;53.516;10.478;2023-06-10T12:50:49;4.75;;;2.30;;
18649;SDS011;9454;53.516;10.478;2023-06-10T12:53:53;7.03;;;2.45;;
18649;SDS011;9454;53.516;10.478;2023-06-10T12:57:00;10.73;;;2.47;;
18649;SDS011;9454;53.516;10.478;2023-06-10T13:00:08;4.90;;;2.63;;
18649;SDS011;9454;53.516;10.478;2023-06-10T13:03:16;4.25;;;2.42;;
18649;SDS011;9454;53.516;10.478;2023-06-10T13:06:21;6.50;;;2.28;;
18649;SDS011;9454;53.516;10.478;2023-06-10T13:09:24;4.50;;;2.65;;
18649;SDS011;9454;53.516;10.478;2023-06-10T13:12:28;7.78;;;2.13;;
18649;SDS011;9454;53.516;10.478;2023-06-10T13:15:50;3.75;;;2.13;;
18649;SDS011;9454;53.516;10.478;2023-06-10T13:18:54;5.75;;;2.38;;
18649;SDS011;9454;53.516;10.478;2023-06-10T13:21:59;5.68;;;2.70;;
18649;SDS011;9454;53.516;10.478;2023-06-10T13:25:03;4.80;;;2.30;;
18649;SDS011;9454;53.516;10.478;2023-06-10T13:28:11;5.65;;;2.70;;
18649;SDS011;9454;53.516;10.478;2023-06-10T13:31:16;6.22;;;2.67;;
18649;SDS011;9454;53.516;10.478;2023-06-10T13:34:21;6.78;;;2.33;;
18649;SDS011;9454;53.516;10.478;2023-06-10T13:37:24;5.43;;;2.45;;
18649;SDS011;9454;53.516;10.478;2023-06-10T13:40:28;5.90;;;2.00;;
18649;SDS011;9454;53.516;10.478;2023-06-10T13:43:33;9.07;;;1.77;;
18649;SDS011;9454;53.516;10.478;2023-06-10T13:46:39;8.50;;;2.10;;
18649;SDS011;9454;53.516;10.478;2023-06-10T13:49:43;5.60;;;1.55;;
18649;SDS011;9454;53.516;10.478;2023-06-10T13:52:47;3.83;;;1.95;;
18649;SDS011;9454;53.516;10.478;2023-06-10T13:55:56;6.63;;;1.85;;
18649;SDS011;9454;53.516;10.478;2023-06-10T13:58:59;6.70;;;2.10;;
18649;SDS011;9454;53.516;10.478;2023-06-10T14:02:06;4.53;;;1.52;;
18649;SDS011;9454;53.516;10.478;2023-06-10T14:05:10;9.30;;;1.88;;
18649;SDS011;9454;53.516;10.478;2023-06-10T14:08:14;5.25;;;1.65;;
18649;SDS011;9454;53.516;10.478;2023-06-10T14:11:19;6.82;;;1.67;;
18649;SDS011;9454;53.516;10.478;2023-06-10T14:14:24;3.83;;;1.80;;
18649;SDS011;9454;53.516;10.478;2023-06-10T14:17:31;3.95;;;1.33;;
18649;SDS011;9454;53.516;10.478;2023-06-10T14:20:37;9.82;;;2.10;;
18649;SDS011;9454;53.516;10.478;2023-06-10T14:23:41;4.65;;;1.45;;
18649;SDS011;9454;53.516;10.478;2023-06-10T14:26:46;7.38;;;1.77;;
18649;SDS011;9454;53.516;10.478;2023-06-10T14:29:50;6.93;;;1.92;;
18649;SDS011;9454;53.516;10.478;2023-06-10T14:32:56;5.57;;;1.58;;
18649;SDS011;9454;53.516;10.478;2023-06-10T14:36:00;6.32;;;1.85;;
18649;SDS011;9454;53.516;10.478;2023-06-10T14:39:05;10.45;;;2.15;;
18649;SDS011;9454;53.516;10.478;2023-06-10T14:42:09;8.82;;;1.90;;
18649;SDS011;9454;53.516;10.478;2023-06-10T14:45:12;5.13;;;1.60;;
18649;SDS011;9454;53.516;10.478;2023-06-10T14:48:17;8.00;;;1.63;;
18649;SDS011;9454;53.516;10.478;2023-06-10T14:51:21;5.82;;;1.70;;
18649;SDS011;9454;53.516;10.478;2023-06-10T14:54:27;6.07;;;1.98;;
18649;SDS011;9454;53.516;10.478;2023-06-10T14:57:31;6.20;;;1.63;;
18649;SDS011;9454;53.516;10.478;2023-06-10T15:00:37;5.00;;;2.00;;
18649;SDS011;9454;53.516;10.478;2023-06-10T15:03:42;8.55;;;1.67;;
18649;SDS011;9454;53.516;10.478;2023-06-10T15:06:47;11.25;;;2.00;;
18649;SDS011;9454;53.516;10.478;2023-06-10T15:09:51;13.18;;;1.60;;
18649;SDS011;9454;53.516;10.478;2023-06-10T15:12:55;4.35;;;1.80;;
18649;SDS011;9454;53.516;10.478;2023-06-10T15:16:03;6.97;;;1.75;;
18649;SDS011;9454;53.516;10.478;2023-06-10T15:19:09;10.13;;;1.65;;
18649;SDS011;9454;53.516;10.478;2023-06-10T15:22:16;4.55;;;1.70;;
18649;SDS011;9454;53.516;10.478;2023-06-10T15:25:19;6.95;;;2.30;;
18649;SDS011;9454;53.516;10.478;2023-06-10T15:28:40;3.83;;;1.80;;
18649;SDS011;9454;53.516;10.478;2023-06-10T15:31:48;8.70;;;2.10;;
18649;SDS011;9454;53.516;10.478;2023-06-10T15:34:53;12.77;;;1.95;;
18649;SDS011;9454;53.516;10.478;2023-06-10T15:37:57;3.13;;;1.70;;
18649;SDS011;9454;53.516;10.478;2023-06-10T15:41:00;5.05;;;1.55;;
18649;SDS011;9454;53.516;10.478;2023-06-10T15:44:04;9.60;;;1.95;;
18649;SDS011;9454;53.516;10.478;2023-06-10T15:47:07;6.85;;;1.95;;
18649;SDS011;9454;53.516;10.478;2023-06-10T15:50:16;4.50;;;1.90;;
18649;SDS011;9454;53.516;10.478;2023-06-10T15:53:22;11.52;;;1.95;;
18649;SDS011;9454;53.516;10.478;2023-06-10T15:56:26;5.22;;;1.98;;
18649;SDS011;9454;53.516;10.478;2023-06-10T15:59:34;3.72;;;1.60;;
18649;SDS011;9454;53.516;10.478;2023-06-10T16:02:37;5.70;;;2.15;;
18649;SDS011;9454;53.516;10.478;2023-06-10T16:05:43;8.45;;;2.63;;
18649;SDS011;9454;53.516;10.478;2023-06-10T16:08:47;4.15;;;1.73;;
18649;SDS011;9454;53.516;10.478;2023-06-10T16:11:56;5.82;;;2.10;;
18649;SDS011;9454;53.516;10.478;2023-06-10T16:15:00;9.57;;;2.00;;
18649;SDS011;9454;53.516;10.478;2023-06-10T16:18:05;8.63;;;2.03;;
18649;SDS011;9454;53.516;10.478;2023-06-10T16:21:10;4.43;;;2.08;;
18649;SDS011;9454;53.516;10.478;2023-06-10T16:24:17;11.63;;;2.30;;
18649;SDS011;9454;53.516;10.478;2023-06-10T16:27:23;11.30;;;2.00;;
18649;SDS011;9454;53.516;10.478;2023-06-10T16:30:29;5.75;;;1.77;;
18649;SDS011;9454;53.516;10.478;2023-06-10T16:33:36;10.32;;;1.95;;
18649;SDS011;9454;53.516;10.478;2023-06-10T16:36:40;6.13;;;1.70;;
18649;SDS011;9454;53.516;10.478;2023-06-10T16:39:44;7.90;;;1.98;;
18649;SDS011;9454;53.516;10.478;2023-06-10T16:42:48;6.55;;;1.80;;
18649;SDS011;9454;53.516;10.478;2023-06-10T16:45:52;6.80;;;2.20;;
18649;SDS011;9454;53.516;10.478;2023-06-10T16:49:02;4.20;;;2.10;;
18649;SDS011;9454;53.516;10.478;2023-06-10T16:52:07;5.55;;;1.65;;
18649;SDS011;9454;53.516;10.478;2023-06-10T16:55:12;7.35;;;2.15;;
18649;SDS011;9454;53.516;10.478;2023-06-10T16:58:15;8.75;;;1.85;;
18649;SDS011;9454;53.516;10.478;2023-06-10T17:01:23;5.05;;;1.65;;
18649;SDS011;9454;53.516;10.478;2023-06-10T17:04:26;8.50;;;2.03;;
18649;SDS011;9454;53.516;10.478;2023-06-10T17:07:32;4.90;;;1.80;;
18649;SDS011;9454;53.516;10.478;2023-06-10T17:10:36;7.68;;;2.15;;
18649;SDS011;9454;53.516;10.478;2023-06-10T17:13:40;6.57;;;1.85;;
18649;SDS011;9454;53.516;10.478;2023-06-10T17:16:44;5.32;;;2.20;;
18649;SDS011;9454;53.516;10.478;2023-06-10T17:19:48;5.97;;;1.90;;
18649;SDS011;9454;53.516;10.478;2023-06-10T17:22:54;5.60;;;2.08;;
18649;SDS011;9454;53.516;10.478;2023-06-10T17:25:58;3.85;;;1.73;;
18649;SDS011;9454;53.516;10.478;2023-06-10T17:29:01;4.65;;;2.10;;
18649;SDS011;9454;53.516;10.478;2023-06-10T17:32:05;8.70;;;1.77;;
18649;SDS011;9454;53.516;10.478;2023-06-10T17:35:09;6.93;;;2.15;;
18649;SDS011;9454;53.516;10.478;2023-06-10T17:38:15;9.80;;;1.80;;
18649;SDS011;9454;53.516;10.478;2023-06-10T17:41:21;4.05;;;1.65;;
18649;SDS011;9454;53.516;10.478;2023-06-10T17:44:27;7.70;;;2.05;;
18649;SDS011;9454;53.516;10.478;2023-06-10T17:47:32;7.00;;;1.70;;
18649;SDS011;9454;53.516;10.478;2023-06-10T17:50:36;10.40;;;2.00;;
18649;SDS011;9454;53.516;10.478;2023-06-10T17:53:43;6.95;;;2.08;;
18649;SDS011;9454;53.516;10.478;2023-06-10T17:56:52;5.80;;;1.95;;
18649;SDS011;9454;53.516;10.478;2023-06-10T17:59:56;3.80;;;1.85;;
18649;SDS011;9454;53.516;10.478;2023-06-10T18:02:59;5.13;;;2.20;;
18649;SDS011;9454;53.516;10.478;2023-06-10T18:06:05;5.88;;;2.53;;
18649;SDS011;9454;53.516;10.478;2023-06-10T18:09:10;6.75;;;1.98;;
18649;SDS011;9454;53.516;10.478;2023-06-10T18:12:15;3.83;;;1.90;;
18649;SDS011;9454;53.516;10.478;2023-06-10T18:15:19;4.45;;;1.70;;
18649;SDS011;9454;53.516;10.478;2023-06-10T18:18:27;7.35;;;2.08;;
18649;SDS011;9454;53.516;10.478;2023-06-10T18:21:32;4.85;;;1.90;;
18649;SDS011;9454;53.516;10.478;2023-06-10T18:24:39;6.43;;;2.10;;
18649;SDS011;9454;53.516;10.478;2023-06-10T18:27:42;4.30;;;2.05;;
18649;SDS011;9454;53.516;10.478;2023-06-10T18:30:48;10.10;;;2.65;;
18649;SDS011;9454;53.516;10.478;2023-06-10T18:33:52;3.15;;;1.95;;
18649;SDS011;9454;53.516;10.478;2023-06-10T18:36:56;10.55;;;1.98;;
18649;SDS011;9454;53.516;10.478;2023-06-10T18:40:01;3.50;;;1.73;;
18649;SDS011;9454;53.516;10.478;2023-06-10T18:43:10;5.30;;;1.88;;